Time;durP1;ratioP1;P1;durP2;ratioP2;P2;SDS_P1;SDS_P2;PMS_P1;PMS_P2;Temp;Humidity;BMP_temperature;BMP_pressure;BME280_temperature;BME280_humidity;BME280_pressure;Samples;Min_cycle;Max_cycle;Signal;HPM_P1;HPM_P2
2021/12/22 00:00:34;;;;;;;;;;;;;;;;;;2081648;28;19924;-84
2021/12/22 00:01:35;;;;;;;;;;;;;;;;;;2081575;28;20429;-84
2021/12/22 00:02:36;;;;;;;;;;;;;;;;;;2081295;28;19913;-84
2021/12/22 00:03:36;;;;;;;;;;;;;;;;;;2080881;28;19955;-85
2021/12/22 00:04:43;;;;;;;;;;;;;;;;;;2081003;28;19913;-84
2021/12/22 00:05:44;;;;;;;;;;;;;;;;;;2072811;28;20016;-83
2021/12/22 00:06:45;;;;;;;;;;;;;;;;;;2073311;28;19918;-84
2021/12/22 00:07:45;;;;;;;;;;;;;;;;;;2081576;28;19920;-84
2021/12/22 00:08:45;;;;;;;;;;;;;;;;;;2081604;28;19940;-85
2021/12/22 00:09:45;;;;;;;;;;;;;;;;;;2081795;28;20338;-85
2021/12/22 00:10:46;;;;;;;;;;;;;;;;;;2081636;28;19913;-85
2021/12/22 00:11:48;;;;;;;;;;;;;;;;;;2081458;28;20362;-85
2021/12/22 00:12:49;;;;;;;;;;;;;;;;;;2081372;28;19952;-85
2021/12/22 00:13:49;;;;;;;;;;;;;;;;;;2072874;28;20088;-85
2021/12/22 00:14:50;;;;;;;;;;;;;;;;;;2072931;28;19913;-85
2021/12/22 00:15:50;;;;;;;;;;;;;;;;;;2081382;28;19927;-85
2021/12/22 00:16:50;;;;;;;;;;;;;;;;;;2081475;28;19913;-84
2021/12/22 00:17:50;;;;;;;;;;;;;;;;;;2080988;28;19917;-84
2021/12/22 00:18:51;;;;;;;;;;;;;;;;;;2081187;28;20358;-84
2021/12/22 00:19:51;;;;;;;;;;;;;;;;;;2081618;28;19914;-85
2021/12/22 00:20:51;;;;;;;;;;;;;;;;;;2081502;28;19928;-85
2021/12/22 00:21:51;;;;;;;;;;;;;;;;;;2081392;28;19913;-84
2021/12/22 00:22:52;;;;;;;;;;;;;;;;;;2081551;28;19919;-86
2021/12/22 00:23:52;;;;;;;;;;;;;;;;;;2081417;28;19948;-85
2021/12/22 00:24:53;;;;;;;;;;;;;;;;;;2081478;28;19913;-84
2021/12/22 00:25:53;;;;;;;;;;;;;;;;;;2081335;28;19913;-84
2021/12/22 00:26:57;;;;;;;;;;;;;;;;;;2080917;28;20011;-85
2021/12/22 00:27:58;;;;;;;;;;;;;;;;;;2072724;28;19924;-85
2021/12/22 00:28:58;;;;;;;;;;;;;;;;;;2073002;28;19925;-85
2021/12/22 00:29:58;;;;;;;;;;;;;;;;;;2081366;28;20000;-85
2021/12/22 00:30:59;;;;;;;;;;;;;;;;;;2081301;28;20305;-83
2021/12/22 00:32:11;;;;;;;;;;;;;;;;;;2081599;28;20478;-83
2021/12/22 00:33:12;;;;;;;;;;;;;;;;;;2081410;28;20124;-84
2021/12/22 00:34:16;;;;;;;;;;;;;;;;;;2081285;28;19924;-84
2021/12/22 00:35:19;;;;;;;;;;;;;;;;;;2081274;28;20369;-86
2021/12/22 00:36:21;;;;;;;;;;;;;;;;;;2081219;28;19961;-85
2021/12/22 00:37:25;;;;;;;;;;;;;;;;;;2083096;28;19975;-84
2021/12/22 00:38:26;;;;;;;;;;;;;;;;;;2083078;28;19913;-85
2021/12/22 00:39:26;;;;;;;;;;;;;;;;;;2082364;28;19953;-86
2021/12/22 00:40:26;;;;;;;;;;;;;;;;;;2082544;28;19913;-85
2021/12/22 00:41:26;;;;;;;;;;;;;;;;;;2083077;28;19978;-84
2021/12/22 00:42:27;;;;;;;;;;;;;;;;;;2083057;28;20405;-85
2021/12/22 00:43:27;;;;;;;;;;;;;;;;;;2083236;28;19913;-85
2021/12/22 00:44:27;;;;;;;;;;;;;;;;;;2074202;28;19940;-85
2021/12/22 00:45:30;;;;;;;;;;;;;;;;;;2074123;28;19914;-85
2021/12/22 00:46:31;;;;;;;;;;;;;;;;;;2074706;28;19976;-85
2021/12/22 00:47:31;;;;;;;;;;;;;;;;;;2082931;28;19932;-85
2021/12/22 00:48:32;;;;;;;;;;;;;;;;;;2083089;28;19970;-85
2021/12/22 00:49:32;;;;;;;;;;;;;;;;;;2083134;28;20004;-85
2021/12/22 00:50:34;;;;;;;;;;;;;;;;;;2083187;28;19917;-84
2021/12/22 00:51:34;;;;;;;;;;;;;;;;;;2083081;28;19917;-85
2021/12/22 00:52:34;;;;;;;;;;;;;;;;;;2083046;28;19947;-85
2021/12/22 00:53:34;;;;;;;;;;;;;;;;;;2083254;28;19913;-85
2021/12/22 00:54:35;;;;;;;;;;;;;;;;;;2082964;28;19913;-85
2021/12/22 00:55:35;;;;;;;;;;;;;;;;;;2082865;28;20107;-85
2021/12/22 00:56:37;;;;;;;;;;;;;;;;;;2082838;28;19941;-85
2021/12/22 00:57:39;;;;;;;;;;;;;;;;;;2082954;28;19973;-85
2021/12/22 00:58:39;;;;;;;;;;;;;;;;;;2083090;28;19924;-85
2021/12/22 00:59:39;;;;;;;;;;;;;;;;;;2082917;28;19952;-85
2021/12/22 01:00:40;;;;;;;;;;;;;;;;;;2082538;28;19913;-85
2021/12/22 01:01:40;;;;;;;;;;;;;;;;;;2082573;28;20384;-85
2021/12/22 01:02:42;;;;;;;;;;;;;;;;;;2083028;28;20015;-85
2021/12/22 01:03:42;;;;;;;;;;;;;;;;;;2082800;28;19953;-85
2021/12/22 01:04:42;;;;;;;;;;;;;;;;;;2082381;28;20103;-85
2021/12/22 01:05:43;;;;;;;;;;;;;;;;;;2082260;28;20485;-85
2021/12/22 01:06:43;;;;;;;;;;;;;;;;;;2074289;28;19913;-85
2021/12/22 01:07:45;;;;;;;;;;;;;;;;;;2074326;28;19996;-85
2021/12/22 01:08:45;;;;;;;;;;;;;;;;;;2082957;28;20366;-85
2021/12/22 01:09:45;;;;;;;;;;;;;;;;;;2082863;28;19920;-85
2021/12/22 01:10:46;;;;;;;;;;;;;;;;;;2082881;28;20366;-85
2021/12/22 01:11:46;;;;;;;;;;;;;;;;;;2082824;28;19921;-85
2021/12/22 01:12:47;;;;;;;;;;;;;;;;;;2082489;28;19913;-85
2021/12/22 01:13:47;;;;;;;;;;;;;;;;;;2082538;28;20425;-85
2021/12/22 01:14:47;;;;;;;;;;;;;;;;;;2082889;28;20330;-85
2021/12/22 01:15:48;;;;;;;;;;;;;;;;;;2082888;28;19918;-84
2021/12/22 01:16:50;;;;;;;;;;;;;;;;;;2082799;28;20432;-85
2021/12/22 01:17:59;;;;;;;;;;;;;;;;;;2082892;28;20135;-85
2021/12/22 01:19:03;;;;;;;;;;;;;;;;;;2082760;28;19924;-85
2021/12/22 01:20:14;;;;;;;;;;;;;;;;;;2082835;28;19923;-85
2021/12/22 01:22:30;;;;;;;;;;;;;;;;;;2082809;28;19920;-86
2021/12/22 01:23:40;;;;;;;;;;;;;;;;;;2082593;28;19913;-85
2021/12/22 01:24:47;;;;;;;;;;;;;;;;;;2082761;28;19921;-85
2021/12/22 01:25:48;;;;;;;;;;;;;;;;;;2082653;28;19913;-85
2021/12/22 01:26:57;;;;;;;;;;;;;;;;;;2082899;28;19913;-85
2021/12/22 01:27:58;;;;;;;;;;;;;;;;;;2082944;28;19914;-85
2021/12/22 01:28:59;;;;;;;;;;;;;;;;;;2082212;28;20004;-85
2021/12/22 01:30:00;;;;;;;;;;;;;;;;;;2082339;28;19924;-85
2021/12/22 01:31:03;;;;;;;;;;;;;;;;;;2082577;28;19959;-84
2021/12/22 01:32:04;;;;;;;;;;;;;;;;;;2082708;28;20305;-85
2021/12/22 01:33:04;;;;;;;;;;;;;;;;;;2073850;28;20090;-84
2021/12/22 01:34:05;;;;;;;;;;;;;;;;;;2074136;28;20398;-85
2021/12/22 01:35:06;;;;;;;;;;;;;;;;;;2082544;28;19914;-84
2021/12/22 01:36:07;;;;;;;;;;;;;;;;;;2082742;28;20044;-84
2021/12/22 01:37:07;;;;;;;;;;;;;;;;;;2082162;28;19945;-84
2021/12/22 01:38:08;;;;;;;;;;;;;;;;;;2082382;28;19913;-84
2021/12/22 01:39:08;;;;;;;;;;;;;;;;;;2082597;28;20366;-84
2021/12/22 01:40:09;;;;;;;;;;;;;;;;;;2082747;28;20342;-84
2021/12/22 01:41:09;;;;;;;;;;;;;;;;;;2082673;28;20001;-84
2021/12/22 01:42:10;;;;;;;;;;;;;;;;;;2082625;28;20358;-86
2021/12/22 01:43:11;;;;;;;;;;;;;;;;;;2082589;28;20358;-84
2021/12/22 01:44:23;;;;;;;;;;;;;;;;;;2082664;28;19917;-84
2021/12/22 01:49:44;;;;;;;;;;;;;;;;;;2082703;28;19917;-85
2021/12/22 01:50:53;;;;;;;;;;;;;;;;;;2082522;28;19913;-84
2021/12/22 01:52:00;;;;;;;;;;;;;;;;;;2082609;28;20354;-84
2021/12/22 01:53:05;;;;;;;;;;;;;;;;;;2082580;28;19913;-85
2021/12/22 01:54:13;;;;;;;;;;;;;;;;;;2082097;28;19991;-84
2021/12/22 01:55:30;;;;;;;;;;;;;;;;;;2073798;28;19978;-84
2021/12/22 01:56:33;;;;;;;;;;;;;;;;;;2076082;28;19917;-84
2021/12/22 01:57:45;;;;;;;;;;;;;;;;;;2082538;28;19913;-84
2021/12/22 01:58:47;;;;;;;;;;;;;;;;;;2082099;28;20373;-84
2021/12/22 01:59:47;;;;;;;;;;;;;;;;;;2082060;28;19920;-83
2021/12/22 02:00:48;;;;;;;;;;;;;;;;;;2082089;28;20366;-84
2021/12/22 02:01:48;;;;;;;;;;;;;;;;;;2082123;28;19913;-84
2021/12/22 02:02:49;;;;;;;;;;;;;;;;;;2082484;28;20092;-84
2021/12/22 02:03:51;;;;;;;;;;;;;;;;;;2082595;28;19992;-84
2021/12/22 02:04:51;;;;;;;;;;;;;;;;;;2082290;28;20154;-84
2021/12/22 02:05:51;;;;;;;;;;;;;;;;;;2082389;28;20417;-84
2021/12/22 02:06:51;;;;;;;;;;;;;;;;;;2081908;28;19916;-84
2021/12/22 02:07:56;;;;;;;;;;;;;;;;;;2073780;28;20346;-84
2021/12/22 02:08:58;;;;;;;;;;;;;;;;;;2066257;28;20293;-83
2021/12/22 02:10:59;;;;;;;;;;;;;;;;;;2073793;28;19913;-83
2021/12/22 02:11:59;;;;;;;;;;;;;;;;;;2082325;28;19914;-83
2021/12/22 02:13:00;;;;;;;;;;;;;;;;;;2081927;28;19913;-84
2021/12/22 02:14:05;;;;;;;;;;;;;;;;;;2081948;28;20392;-84
2021/12/22 02:15:06;;;;;;;;;;;;;;;;;;2073598;28;20348;-84
2021/12/22 02:16:12;;;;;;;;;;;;;;;;;;2073638;28;19948;-84
2021/12/22 02:17:13;;;;;;;;;;;;;;;;;;2082259;28;20411;-84
2021/12/22 02:18:18;;;;;;;;;;;;;;;;;;2082306;28;20428;-84
2021/12/22 02:19:18;;;;;;;;;;;;;;;;;;2073584;28;20310;-85
2021/12/22 02:20:19;;;;;;;;;;;;;;;;;;2073703;28;19913;-84
2021/12/22 02:21:22;;;;;;;;;;;;;;;;;;2073579;28;19984;-84
2021/12/22 02:22:23;;;;;;;;;;;;;;;;;;2074050;28;19928;-84
2021/12/22 02:23:23;;;;;;;;;;;;;;;;;;2082263;28;19936;-84
2021/12/22 02:24:24;;;;;;;;;;;;;;;;;;2082302;28;19968;-83
2021/12/22 02:25:33;;;;;;;;;;;;;;;;;;2081813;28;19983;-85
2021/12/22 02:26:40;;;;;;;;;;;;;;;;;;2082003;28;20032;-83
2021/12/22 02:27:51;;;;;;;;;;;;;;;;;;2082210;28;19913;-85
2021/12/22 02:29:03;;;;;;;;;;;;;;;;;;2082048;28;19956;-84
2021/12/22 02:30:06;;;;;;;;;;;;;;;;;;2081824;28;20004;-84
2021/12/22 02:31:06;;;;;;;;;;;;;;;;;;2081757;28;19924;-85
2021/12/22 02:32:55;;;;;;;;;;;;;;;;;;2082231;28;20012;-85
2021/12/22 02:33:35;;;;;;;;;;;;;;;;;;2081665;28;19999;-85
2021/12/22 02:34:44;;;;;;;;;;;;;;;;;;2082314;28;20035;-85
2021/12/22 02:35:54;;;;;;;;;;;;;;;;;;2081883;28;20083;-84
2021/12/22 02:36:59;;;;;;;;;;;;;;;;;;2082247;28;19909;-84
2021/12/22 02:37:59;;;;;;;;;;;;;;;;;;2082223;28;20412;-85
2021/12/22 02:39:00;;;;;;;;;;;;;;;;;;2082264;28;19952;-84
2021/12/22 02:40:11;;;;;;;;;;;;;;;;;;2082167;28;20353;-85
2021/12/22 02:41:14;;;;;;;;;;;;;;;;;;2082118;28;19917;-85
2021/12/22 02:42:18;;;;;;;;;;;;;;;;;;2082212;28;20018;-85
2021/12/22 02:43:23;;;;;;;;;;;;;;;;;;2082149;28;19913;-85
2021/12/22 02:44:24;;;;;;;;;;;;;;;;;;2082260;28;20039;-83
2021/12/22 02:45:24;;;;;;;;;;;;;;;;;;2082080;28;19940;-84
2021/12/22 02:46:26;;;;;;;;;;;;;;;;;;2073342;28;19914;-85
2021/12/22 02:47:28;;;;;;;;;;;;;;;;;;2073595;28;20016;-85
2021/12/22 02:48:29;;;;;;;;;;;;;;;;;;2073375;28;19917;-85
2021/12/22 02:49:29;;;;;;;;;;;;;;;;;;2073369;28;19937;-84
2021/12/22 02:50:30;;;;;;;;;;;;;;;;;;2073407;28;19924;-85
2021/12/22 02:51:30;;;;;;;;;;;;;;;;;;2082094;28;20317;-85
2021/12/22 02:52:38;;;;;;;;;;;;;;;;;;2082044;28;19914;-84
2021/12/22 02:53:44;;;;;;;;;;;;;;;;;;2082054;28;19999;-84
2021/12/22 02:54:54;;;;;;;;;;;;;;;;;;2082135;28;19967;-85
2021/12/22 02:56:24;;;;;;;;;;;;;;;;;;2082192;28;19971;-84
2021/12/22 02:57:31;;;;;;;;;;;;;;;;;;2081975;28;20056;-84
2021/12/22 02:59:45;;;;;;;;;;;;;;;;;;2081536;28;19924;-84
2021/12/22 03:00:50;;;;;;;;;;;;;;;;;;2082011;28;19921;-83
2021/12/22 03:03:07;;;;;;;;;;;;;;;;;;2073346;28;19952;-85
2021/12/22 03:04:12;;;;;;;;;;;;;;;;;;2082108;28;19909;-84
2021/12/22 03:05:12;;;;;;;;;;;;;;;;;;2081918;28;19974;-84
2021/12/22 03:06:17;;;;;;;;;;;;;;;;;;2082019;28;19974;-85
2021/12/22 03:07:19;;;;;;;;;;;;;;;;;;2082028;28;19913;-84
2021/12/22 03:08:19;;;;;;;;;;;;;;;;;;2082063;28;19923;-85
2021/12/22 03:09:20;;;;;;;;;;;;;;;;;;2082085;28;20339;-85
2021/12/22 03:10:20;;;;;;;;;;;;;;;;;;2081386;28;20003;-85
2021/12/22 03:11:21;;;;;;;;;;;;;;;;;;2081607;28;19982;-84
2021/12/22 03:12:23;;;;;;;;;;;;;;;;;;2081482;28;19924;-83
2021/12/22 03:13:23;;;;;;;;;;;;;;;;;;2081367;28;20036;-84
2021/12/22 03:14:24;;;;;;;;;;;;;;;;;;2082017;28;19913;-83
2021/12/22 03:15:24;;;;;;;;;;;;;;;;;;2081774;28;20338;-83
2021/12/22 03:16:25;;;;;;;;;;;;;;;;;;2081801;28;20481;-83
2021/12/22 03:17:25;;;;;;;;;;;;;;;;;;2089559;28;20003;-83
2021/12/22 03:18:25;;;;;;;;;;;;;;;;;;2089518;28;20293;-83
2021/12/22 03:19:27;;;;;;;;;;;;;;;;;;2081379;28;19983;-83
2021/12/22 03:20:27;;;;;;;;;;;;;;;;;;2081423;28;19913;-84
2021/12/22 03:21:27;;;;;;;;;;;;;;;;;;2081495;28;20420;-84
2021/12/22 03:22:28;;;;;;;;;;;;;;;;;;2082123;28;19920;-84
2021/12/22 03:23:28;;;;;;;;;;;;;;;;;;2082033;28;20255;-85
2021/12/22 03:24:30;;;;;;;;;;;;;;;;;;2082043;28;20004;-85
2021/12/22 03:25:30;;;;;;;;;;;;;;;;;;2081707;28;19914;-83
2021/12/22 03:26:30;;;;;;;;;;;;;;;;;;2081881;28;19920;-84
2021/12/22 03:27:31;;;;;;;;;;;;;;;;;;2081842;28;20374;-84
2021/12/22 03:28:31;;;;;;;;;;;;;;;;;;2081939;28;19917;-84
2021/12/22 03:29:32;;;;;;;;;;;;;;;;;;2081313;28;19929;-84
2021/12/22 03:30:33;;;;;;;;;;;;;;;;;;2081316;28;19913;-84
2021/12/22 03:31:33;;;;;;;;;;;;;;;;;;2081417;28;20441;-84
2021/12/22 03:32:34;;;;;;;;;;;;;;;;;;2081782;28;19914;-84
2021/12/22 03:33:34;;;;;;;;;;;;;;;;;;2081791;28;19952;-84
2021/12/22 03:34:34;;;;;;;;;;;;;;;;;;2081741;28;19940;-84
2021/12/22 03:35:37;;;;;;;;;;;;;;;;;;2081604;28;19971;-84
2021/12/22 03:36:38;;;;;;;;;;;;;;;;;;2081729;28;19931;-84
2021/12/22 03:37:38;;;;;;;;;;;;;;;;;;2081822;28;19921;-84
2021/12/22 03:38:38;;;;;;;;;;;;;;;;;;2081790;28;19939;-84
2021/12/22 03:39:38;;;;;;;;;;;;;;;;;;2081906;28;19917;-84
2021/12/22 03:40:39;;;;;;;;;;;;;;;;;;2082011;28;20345;-84
2021/12/22 03:41:40;;;;;;;;;;;;;;;;;;2081821;28;19917;-84
2021/12/22 03:42:40;;;;;;;;;;;;;;;;;;2081752;28;20381;-84
2021/12/22 03:43:41;;;;;;;;;;;;;;;;;;2081751;28;19960;-84
2021/12/22 03:44:41;;;;;;;;;;;;;;;;;;2081777;28;20419;-83
2021/12/22 03:45:41;;;;;;;;;;;;;;;;;;2081803;28;19916;-83
2021/12/22 03:46:42;;;;;;;;;;;;;;;;;;2081761;28;19979;-83
2021/12/22 03:47:43;;;;;;;;;;;;;;;;;;2081826;28;19952;-84
2021/12/22 03:48:43;;;;;;;;;;;;;;;;;;2081811;28;19964;-84
2021/12/22 03:49:44;;;;;;;;;;;;;;;;;;2081801;28;19976;-85
2021/12/22 03:50:44;;;;;;;;;;;;;;;;;;2081879;28;19913;-84
2021/12/22 03:51:45;;;;;;;;;;;;;;;;;;2081823;28;19917;-84
2021/12/22 03:52:47;;;;;;;;;;;;;;;;;;2081179;28;20206;-84
2021/12/22 03:53:48;;;;;;;;;;;;;;;;;;2081315;28;19944;-84
2021/12/22 03:54:54;;;;;;;;;;;;;;;;;;2081862;28;19913;-84
2021/12/22 03:55:55;;;;;;;;;;;;;;;;;;2081814;28;19917;-84
2021/12/22 03:56:55;;;;;;;;;;;;;;;;;;2088891;28;20254;-84
2021/12/22 03:57:56;;;;;;;;;;;;;;;;;;2089909;28;19912;-84
2021/12/22 03:58:56;;;;;;;;;;;;;;;;;;2089997;28;19912;-84
2021/12/22 03:59:58;;;;;;;;;;;;;;;;;;2081222;28;19959;-84
2021/12/22 04:00:59;;;;;;;;;;;;;;;;;;2081392;28;19925;-83
2021/12/22 04:01:59;;;;;;;;;;;;;;;;;;2089826;28;20496;-83
2021/12/22 04:03:01;;;;;;;;;;;;;;;;;;2089966;28;19924;-83
2021/12/22 04:04:07;;;;;;;;;;;;;;;;;;2089920;28;19924;-84
2021/12/22 04:05:08;;;;;;;;;;;;;;;;;;2089226;28;20445;-83
2021/12/22 04:06:09;;;;;;;;;;;;;;;;;;2081039;28;19924;-84
2021/12/22 04:07:09;;;;;;;;;;;;;;;;;;2081344;28;20358;-82
2021/12/22 04:08:11;;;;;;;;;;;;;;;;;;2089085;28;20003;-84
2021/12/22 04:09:12;;;;;;;;;;;;;;;;;;2089352;28;20034;-84
2021/12/22 04:10:22;;;;;;;;;;;;;;;;;;2089905;28;19947;-84
2021/12/22 04:11:22;;;;;;;;;;;;;;;;;;2080315;28;19924;-83
2021/12/22 04:12:23;;;;;;;;;;;;;;;;;;2081133;28;20449;-84
2021/12/22 04:13:23;;;;;;;;;;;;;;;;;;2089713;28;19947;-84
2021/12/22 04:14:23;;;;;;;;;;;;;;;;;;2089824;28;19923;-85
2021/12/22 04:15:25;;;;;;;;;;;;;;;;;;2089860;28;19994;-84
2021/12/22 04:16:25;;;;;;;;;;;;;;;;;;2089644;28;20342;-84
2021/12/22 04:17:25;;;;;;;;;;;;;;;;;;2089770;28;19913;-84
2021/12/22 04:18:25;;;;;;;;;;;;;;;;;;2089710;28;19912;-84
2021/12/22 04:19:26;;;;;;;;;;;;;;;;;;2089756;28;19913;-84
2021/12/22 04:20:28;;;;;;;;;;;;;;;;;;2089778;28;20306;-82
2021/12/22 04:21:29;;;;;;;;;;;;;;;;;;2080933;28;19913;-83
2021/12/22 04:22:29;;;;;;;;;;;;;;;;;;2073001;28;20274;-83
2021/12/22 04:23:32;;;;;;;;;;;;;;;;;;2081213;28;19924;-84
2021/12/22 04:24:32;;;;;;;;;;;;;;;;;;2080924;28;19939;-84
2021/12/22 04:25:33;;;;;;;;;;;;;;;;;;2080777;28;20012;-84
2021/12/22 04:26:33;;;;;;;;;;;;;;;;;;2089292;28;19920;-84
2021/12/22 04:27:34;;;;;;;;;;;;;;;;;;2089690;28;19921;-84
2021/12/22 04:28:34;;;;;;;;;;;;;;;;;;2089741;28;19912;-84
2021/12/22 04:29:35;;;;;;;;;;;;;;;;;;2080898;28;19928;-85
2021/12/22 04:30:39;;;;;;;;;;;;;;;;;;2081136;28;20302;-84
2021/12/22 04:31:40;;;;;;;;;;;;;;;;;;2089344;28;19934;-84
2021/12/22 04:32:40;;;;;;;;;;;;;;;;;;2089233;28;19917;-84
2021/12/22 04:33:40;;;;;;;;;;;;;;;;;;2081061;28;19913;-84
2021/12/22 04:34:41;;;;;;;;;;;;;;;;;;2072788;28;19920;-83
2021/12/22 04:35:41;;;;;;;;;;;;;;;;;;2080977;28;19917;-83
2021/12/22 04:36:42;;;;;;;;;;;;;;;;;;2089731;28;19920;-84
2021/12/22 04:37:42;;;;;;;;;;;;;;;;;;2089790;28;20018;-84
2021/12/22 04:38:43;;;;;;;;;;;;;;;;;;2089679;28;19913;-84
2021/12/22 04:39:43;;;;;;;;;;;;;;;;;;2089637;28;20003;-84
2021/12/22 04:40:43;;;;;;;;;;;;;;;;;;2089684;28;20277;-82
2021/12/22 04:41:43;;;;;;;;;;;;;;;;;;2089552;28;19924;-83
2021/12/22 04:42:44;;;;;;;;;;;;;;;;;;2080993;28;19948;-83
2021/12/22 04:43:45;;;;;;;;;;;;;;;;;;2081575;28;19913;-82
2021/12/22 04:44:46;;;;;;;;;;;;;;;;;;2083603;28;19921;-83
2021/12/22 04:45:46;;;;;;;;;;;;;;;;;;2083602;28;20385;-82
2021/12/22 04:46:46;;;;;;;;;;;;;;;;;;2089151;28;19955;-83
2021/12/22 04:47:47;;;;;;;;;;;;;;;;;;2089232;28;19913;-83
2021/12/22 04:48:50;;;;;;;;;;;;;;;;;;2080856;28;19924;-83
2021/12/22 04:49:50;;;;;;;;;;;;;;;;;;2081155;28;20421;-83
2021/12/22 04:50:51;;;;;;;;;;;;;;;;;;2080849;28;19962;-84
2021/12/22 04:51:53;;;;;;;;;;;;;;;;;;2080972;28;19914;-83
2021/12/22 04:52:59;;;;;;;;;;;;;;;;;;2089147;28;20341;-83
2021/12/22 04:54:30;;;;;;;;;;;;;;;;;;2089573;28;20133;-83
2021/12/22 04:55:31;;;;;;;;;;;;;;;;;;2080553;28;19917;-83
2021/12/22 04:56:31;;;;;;;;;;;;;;;;;;2080780;28;19917;-84
2021/12/22 04:57:32;;;;;;;;;;;;;;;;;;2080711;28;19917;-83
2021/12/22 04:58:32;;;;;;;;;;;;;;;;;;2072681;28;20366;-84
2021/12/22 04:59:32;;;;;;;;;;;;;;;;;;2080802;28;19921;-83
2021/12/22 05:00:34;;;;;;;;;;;;;;;;;;2089444;28;19912;-82
2021/12/22 05:01:34;;;;;;;;;;;;;;;;;;2089408;28;20350;-84
2021/12/22 05:02:34;;;;;;;;;;;;;;;;;;2080776;28;19964;-84
2021/12/22 05:03:35;;;;;;;;;;;;;;;;;;2080845;28;19913;-84
2021/12/22 05:04:35;;;;;;;;;;;;;;;;;;2089344;28;20338;-84
2021/12/22 05:05:35;;;;;;;;;;;;;;;;;;2089473;28;20294;-84
2021/12/22 05:06:36;;;;;;;;;;;;;;;;;;2080703;28;20358;-83
2021/12/22 05:07:36;;;;;;;;;;;;;;;;;;2080803;28;19921;-83
2021/12/22 05:08:37;;;;;;;;;;;;;;;;;;2089292;28;20008;-84
2021/12/22 05:09:37;;;;;;;;;;;;;;;;;;2089522;28;19913;-84
2021/12/22 05:10:37;;;;;;;;;;;;;;;;;;2089639;28;19936;-83
2021/12/22 05:11:38;;;;;;;;;;;;;;;;;;2089585;28;19939;-83
2021/12/22 05:12:38;;;;;;;;;;;;;;;;;;2080783;28;19924;-83
2021/12/22 05:13:38;;;;;;;;;;;;;;;;;;2080893;28;19912;-83
2021/12/22 05:14:39;;;;;;;;;;;;;;;;;;2080699;28;19913;-83
2021/12/22 05:15:40;;;;;;;;;;;;;;;;;;2072473;28;19917;-83
2021/12/22 05:16:48;;;;;;;;;;;;;;;;;;2080827;28;19913;-83
2021/12/22 05:19:52;;;;;;;;;;;;;;;;;;2089712;28;19916;-83
2021/12/22 05:20:53;;;;;;;;;;;;;;;;;;2089340;28;19912;-83
2021/12/22 05:21:53;;;;;;;;;;;;;;;;;;2089422;28;20135;-83
2021/12/22 05:22:54;;;;;;;;;;;;;;;;;;2090073;28;19912;-84
2021/12/22 05:23:55;;;;;;;;;;;;;;;;;;2091054;28;19974;-83
2021/12/22 05:24:57;;;;;;;;;;;;;;;;;;2082087;28;19921;-83
2021/12/22 05:25:58;;;;;;;;;;;;;;;;;;2082538;28;19920;-83
2021/12/22 05:26:58;;;;;;;;;;;;;;;;;;2090942;28;19917;-83
2021/12/22 05:27:58;;;;;;;;;;;;;;;;;;2091241;28;19966;-82
2021/12/22 05:28:59;;;;;;;;;;;;;;;;;;2090993;28;19912;-84
2021/12/22 05:29:59;;;;;;;;;;;;;;;;;;2082106;28;20370;-83
2021/12/22 05:31:01;;;;;;;;;;;;;;;;;;2082184;28;19913;-83
2021/12/22 05:32:03;;;;;;;;;;;;;;;;;;2090517;28;19955;-83
2021/12/22 05:33:04;;;;;;;;;;;;;;;;;;2082204;28;19913;-83
2021/12/22 05:34:04;;;;;;;;;;;;;;;;;;2074112;28;19913;-84
2021/12/22 05:35:06;;;;;;;;;;;;;;;;;;2082175;28;19944;-84
2021/12/22 05:36:06;;;;;;;;;;;;;;;;;;2082079;28;20317;-83
2021/12/22 05:37:07;;;;;;;;;;;;;;;;;;2082040;28;20070;-84
2021/12/22 05:38:07;;;;;;;;;;;;;;;;;;2081964;28;19913;-83
2021/12/22 05:39:07;;;;;;;;;;;;;;;;;;2090841;28;20346;-83
2021/12/22 05:40:08;;;;;;;;;;;;;;;;;;2090782;28;19913;-84
2021/12/22 05:41:08;;;;;;;;;;;;;;;;;;2090893;28;20360;-84
2021/12/22 05:42:09;;;;;;;;;;;;;;;;;;2082057;28;19924;-84
2021/12/22 05:43:09;;;;;;;;;;;;;;;;;;2082244;28;20388;-84
2021/12/22 05:44:09;;;;;;;;;;;;;;;;;;2090953;28;20026;-84
2021/12/22 05:45:10;;;;;;;;;;;;;;;;;;2082192;28;19920;-84
2021/12/22 05:46:10;;;;;;;;;;;;;;;;;;2073976;28;19916;-84
2021/12/22 05:47:10;;;;;;;;;;;;;;;;;;2082161;28;20263;-84
2021/12/22 05:48:10;;;;;;;;;;;;;;;;;;2090402;28;19916;-83
2021/12/22 05:49:11;;;;;;;;;;;;;;;;;;2090859;28;19924;-83
2021/12/22 05:50:11;;;;;;;;;;;;;;;;;;2090817;28;19913;-84
2021/12/22 05:51:11;;;;;;;;;;;;;;;;;;2090352;28;20015;-83
2021/12/22 05:52:12;;;;;;;;;;;;;;;;;;2081976;28;19968;-84
2021/12/22 05:53:12;;;;;;;;;;;;;;;;;;2082201;28;19960;-83
2021/12/22 05:54:12;;;;;;;;;;;;;;;;;;2090826;28;19944;-83
2021/12/22 05:55:13;;;;;;;;;;;;;;;;;;2090784;28;20377;-83
2021/12/22 05:56:13;;;;;;;;;;;;;;;;;;2081892;28;19974;-83
2021/12/22 05:57:13;;;;;;;;;;;;;;;;;;2082455;28;19967;-82
2021/12/22 05:58:14;;;;;;;;;;;;;;;;;;2090841;28;19923;-82
2021/12/22 05:59:14;;;;;;;;;;;;;;;;;;2091144;28;19913;-84
2021/12/22 06:00:14;;;;;;;;;;;;;;;;;;2090901;28;19948;-84
2021/12/22 06:01:15;;;;;;;;;;;;;;;;;;2090850;28;20301;-84
2021/12/22 06:02:15;;;;;;;;;;;;;;;;;;2090767;28;19921;-84
2021/12/22 06:03:15;;;;;;;;;;;;;;;;;;2091082;28;19924;-84
2021/12/22 06:04:16;;;;;;;;;;;;;;;;;;2082049;28;20003;-84
2021/12/22 06:05:18;;;;;;;;;;;;;;;;;;2082014;28;19913;-84
2021/12/22 06:06:18;;;;;;;;;;;;;;;;;;2090612;28;19928;-84
2021/12/22 06:07:19;;;;;;;;;;;;;;;;;;2090719;28;20425;-84
2021/12/22 06:08:19;;;;;;;;;;;;;;;;;;2090814;28;19956;-84
2021/12/22 06:09:19;;;;;;;;;;;;;;;;;;2090708;28;19952;-84
2021/12/22 06:10:19;;;;;;;;;;;;;;;;;;2090713;28;20015;-83
2021/12/22 06:11:20;;;;;;;;;;;;;;;;;;2090715;28;20015;-84
2021/12/22 06:12:20;;;;;;;;;;;;;;;;;;2090669;28;20007;-84
2021/12/22 06:13:20;;;;;;;;;;;;;;;;;;2090652;28;20005;-84
2021/12/22 06:14:20;;;;;;;;;;;;;;;;;;2090693;28;19920;-83
2021/12/22 06:15:21;;;;;;;;;;;;;;;;;;2090634;28;19923;-83
2021/12/22 06:16:21;;;;;;;;;;;;;;;;;;2090630;28;19912;-82
2021/12/22 06:17:24;;;;;;;;;;;;;;;;;;2090629;28;19979;-84
2021/12/22 06:18:26;;;;;;;;;;;;;;;;;;2081932;28;19979;-84
2021/12/22 06:19:26;;;;;;;;;;;;;;;;;;2082136;28;20016;-83
2021/12/22 06:20:27;;;;;;;;;;;;;;;;;;2090739;28;19920;-83
2021/12/22 06:21:27;;;;;;;;;;;;;;;;;;2082019;28;20409;-84
2021/12/22 06:22:30;;;;;;;;;;;;;;;;;;2082199;28;20026;-84
2021/12/22 06:23:30;;;;;;;;;;;;;;;;;;2090634;28;19932;-84
2021/12/22 06:24:30;;;;;;;;;;;;;;;;;;2090652;28;19916;-84
2021/12/22 06:25:30;;;;;;;;;;;;;;;;;;2081754;28;19971;-84
2021/12/22 06:26:31;;;;;;;;;;;;;;;;;;2082092;28;19913;-84
2021/12/22 06:27:31;;;;;;;;;;;;;;;;;;2081744;28;19924;-84
2021/12/22 06:28:32;;;;;;;;;;;;;;;;;;2073787;28;20346;-84
2021/12/22 06:29:32;;;;;;;;;;;;;;;;;;2081686;28;19920;-84
2021/12/22 06:30:32;;;;;;;;;;;;;;;;;;2081904;28;19917;-84
2021/12/22 06:31:33;;;;;;;;;;;;;;;;;;2081855;28;20358;-84
2021/12/22 06:32:33;;;;;;;;;;;;;;;;;;2090545;28;19913;-84
2021/12/22 06:33:33;;;;;;;;;;;;;;;;;;2081816;28;19924;-84
2021/12/22 06:34:34;;;;;;;;;;;;;;;;;;2072659;28;20313;-84
2021/12/22 06:35:34;;;;;;;;;;;;;;;;;;2081637;28;19917;-84
2021/12/22 06:36:37;;;;;;;;;;;;;;;;;;2090011;28;20348;-84
2021/12/22 06:37:42;;;;;;;;;;;;;;;;;;2090529;28;20346;-84
2021/12/22 06:38:42;;;;;;;;;;;;;;;;;;2090519;28;20050;-84
2021/12/22 06:39:42;;;;;;;;;;;;;;;;;;2089878;28;20409;-84
2021/12/22 06:40:43;;;;;;;;;;;;;;;;;;2090465;28;19913;-84
2021/12/22 06:41:43;;;;;;;;;;;;;;;;;;2090551;28;19913;-84
2021/12/22 06:42:44;;;;;;;;;;;;;;;;;;2090441;28;19913;-83
2021/12/22 06:43:45;;;;;;;;;;;;;;;;;;2090341;28;19913;-83
2021/12/22 06:44:45;;;;;;;;;;;;;;;;;;2090254;28;19923;-83
2021/12/22 06:45:45;;;;;;;;;;;;;;;;;;2090330;28;19916;-83
2021/12/22 06:46:45;;;;;;;;;;;;;;;;;;2090523;28;19990;-84
2021/12/22 06:47:46;;;;;;;;;;;;;;;;;;2090657;28;19912;-84
2021/12/22 06:48:46;;;;;;;;;;;;;;;;;;2090797;28;19925;-82
2021/12/22 06:49:46;;;;;;;;;;;;;;;;;;2090163;28;19975;-82
2021/12/22 06:50:47;;;;;;;;;;;;;;;;;;2089893;28;20388;-83
2021/12/22 06:51:47;;;;;;;;;;;;;;;;;;2090486;28;19982;-82
2021/12/22 06:52:47;;;;;;;;;;;;;;;;;;2081581;28;19920;-84
2021/12/22 06:53:47;;;;;;;;;;;;;;;;;;2081764;28;19963;-84
2021/12/22 06:54:50;;;;;;;;;;;;;;;;;;2090304;28;19913;-84
2021/12/22 06:55:50;;;;;;;;;;;;;;;;;;2090314;28;20046;-83
2021/12/22 06:56:50;;;;;;;;;;;;;;;;;;2081436;28;20079;-84
2021/12/22 06:57:51;;;;;;;;;;;;;;;;;;2081725;28;19956;-83
2021/12/22 06:58:52;;;;;;;;;;;;;;;;;;2090272;28;19913;-84
2021/12/22 06:59:52;;;;;;;;;;;;;;;;;;2090407;28;19928;-84
2021/12/22 07:00:52;;;;;;;;;;;;;;;;;;2090315;28;19920;-84
2021/12/22 07:01:52;;;;;;;;;;;;;;;;;;2090294;28;20373;-84
2021/12/22 07:02:54;;;;;;;;;;;;;;;;;;2090304;28;19912;-83
2021/12/22 07:03:54;;;;;;;;;;;;;;;;;;2090355;28;19924;-84
2021/12/22 07:04:54;;;;;;;;;;;;;;;;;;2081587;28;19917;-84
2021/12/22 07:05:54;;;;;;;;;;;;;;;;;;2081468;28;20003;-84
2021/12/22 07:06:55;;;;;;;;;;;;;;;;;;2090375;28;19913;-84
2021/12/22 07:07:55;;;;;;;;;;;;;;;;;;2090252;28;19982;-84
2021/12/22 07:08:55;;;;;;;;;;;;;;;;;;2090185;28;20424;-84
2021/12/22 07:09:56;;;;;;;;;;;;;;;;;;2081450;28;20055;-84
2021/12/22 07:10:56;;;;;;;;;;;;;;;;;;2077250;28;19921;-84
2021/12/22 07:11:56;;;;;;;;;;;;;;;;;;2090145;28;19923;-84